Time;durP1;ratioP1;P1;durP2;ratioP2;P2;SDS_P1;SDS_P2;PMS_P1;PMS_P2;Temp;Humidity;BMP_temperature;BMP_pressure;BME280_temperature;BME280_humidity;BME280_pressure;Samples;Min_cycle;Max_cycle;Signal;HPM_P1;HPM_P2
2022/08/06 00:02:20;;;;;;;1.60;0.90;;;;;;;;;;5079457;28;20557;-70
2022/08/06 00:04:50;;;;;;;2.13;0.80;;;;;;;;;;5076328;28;20467;-70
2022/08/06 00:07:20;;;;;;;3.30;1.00;;;;;;;;;;5076159;28;20460;-70
2022/08/06 00:09:48;;;;;;;3.20;1.23;;;;;;;;;;5076406;28;20861;-69
2022/08/06 00:12:16;;;;;;;5.30;1.10;;;;;;;;;;5074199;28;20445;-69
2022/08/06 00:14:44;;;;;;;2.00;1.10;;;;;;;;;;5074201;28;20488;-69
2022/08/06 00:17:11;;;;;;;2.50;1.07;;;;;;;;;;5075979;28;20459;-70
2022/08/06 00:19:38;;;;;;;1.60;0.80;;;;;;;;;;5074906;28;20456;-70
2022/08/06 00:22:05;;;;;;;6.73;1.27;;;;;;;;;;5074611;28;20502;-69
2022/08/06 00:24:32;;;;;;;2.27;1.00;;;;;;;;;;5073833;28;20468;-70
2022/08/06 00:26:59;;;;;;;3.20;0.90;;;;;;;;;;5073818;28;20445;-69
2022/08/06 00:29:27;;;;;;;2.20;0.87;;;;;;;;;;5074491;28;20510;-69
2022/08/06 00:31:54;;;;;;;3.10;1.10;;;;;;;;;;5074806;28;20457;-69
2022/08/06 00:34:21;;;;;;;3.10;1.13;;;;;;;;;;5075462;28;20923;-69
2022/08/06 00:36:48;;;;;;;2.80;1.23;;;;;;;;;;5075699;28;20444;-70
2022/08/06 00:39:16;;;;;;;2.27;1.40;;;;;;;;;;5093064;28;20603;-69
2022/08/06 00:41:43;;;;;;;4.07;1.10;;;;;;;;;;5079206;28;20448;-69
2022/08/06 00:44:10;;;;;;;2.40;1.20;;;;;;;;;;5095296;28;20782;-70
2022/08/06 00:46:38;;;;;;;2.17;0.90;;;;;;;;;;5095760;28;20450;-70
2022/08/06 00:49:06;;;;;;;1.33;0.60;;;;;;;;;;5095904;28;20554;-69
2022/08/06 00:51:34;;;;;;;2.23;1.03;;;;;;;;;;5095514;28;20459;-69
2022/08/06 00:54:02;;;;;;;2.40;1.10;;;;;;;;;;5096223;28;20459;-69
2022/08/06 00:56:29;;;;;;;1.63;0.80;;;;;;;;;;5094758;28;20753;-69
2022/08/06 00:58:56;;;;;;;2.20;1.20;;;;;;;;;;5094701;28;20450;-69
2022/08/06 01:01:23;;;;;;;2.50;1.03;;;;;;;;;;5094226;28;20524;-69
2022/08/06 01:03:51;;;;;;;2.43;0.83;;;;;;;;;;5095396;28;20474;-69
2022/08/06 01:06:19;;;;;;;4.77;2.43;;;;;;;;;;5095055;28;20920;-69
2022/08/06 01:08:46;;;;;;;2.07;0.90;;;;;;;;;;5094323;28;20883;-69
2022/08/06 01:11:13;;;;;;;2.73;1.10;;;;;;;;;;5094240;28;20456;-70
2022/08/06 01:13:40;;;;;;;3.80;1.60;;;;;;;;;;5094019;28;20444;-69
2022/08/06 01:16:12;;;;;;;4.17;1.10;;;;;;;;;;5094084;28;20500;-70
2022/08/06 01:18:43;;;;;;;6.40;1.70;;;;;;;;;;5092566;28;20460;-69
2022/08/06 01:21:19;;;;;;;2.43;1.17;;;;;;;;;;5094945;28;20456;-69
2022/08/06 01:23:52;;;;;;;2.53;0.90;;;;;;;;;;5094889;28;20636;-69
2022/08/06 01:26:27;;;;;;;1.60;1.00;;;;;;;;;;5096907;28;20622;-69
2022/08/06 01:28:57;;;;;;;5.03;1.30;;;;;;;;;;5098162;28;20948;-69
2022/08/06 01:31:27;;;;;;;6.63;4.50;;;;;;;;;;5098113;28;20471;-69
2022/08/06 01:33:58;;;;;;;3.33;1.00;;;;;;;;;;5097813;28;20500;-70
2022/08/06 01:36:30;;;;;;;4.80;1.10;;;;;;;;;;5097802;28;20479;-70
2022/08/06 01:38:59;;;;;;;1.73;0.90;;;;;;;;;;5096859;28;20451;-69
2022/08/06 01:41:44;;;;;;;1.70;0.80;;;;;;;;;;5097818;28;20456;-69
2022/08/06 01:44:12;;;;;;;2.37;1.10;;;;;;;;;;5098809;28;20444;-69
2022/08/06 01:46:41;;;;;;;2.27;1.30;;;;;;;;;;5099468;28;20979;-69
2022/08/06 01:49:09;;;;;;;2.00;0.80;;;;;;;;;;5097393;28;20446;-70
2022/08/06 01:51:38;;;;;;;2.70;1.00;;;;;;;;;;5096577;28;20464;-69
2022/08/06 01:54:10;;;;;;;7.67;0.93;;;;;;;;;;5098728;28;20451;-70
2022/08/06 01:56:39;;;;;;;4.63;1.60;;;;;;;;;;5077682;28;20534;-69
2022/08/06 01:59:07;;;;;;;2.00;1.00;;;;;;;;;;5077913;28;20452;-69
2022/08/06 02:01:36;;;;;;;6.23;0.97;;;;;;;;;;5076859;28;20559;-69
2022/08/06 02:04:04;;;;;;;3.20;1.00;;;;;;;;;;5077218;28;20841;-69
2022/08/06 02:06:33;;;;;;;1.90;0.90;;;;;;;;;;5077231;28;20460;-69
2022/08/06 02:09:02;;;;;;;4.20;1.10;;;;;;;;;;5077836;28;20456;-69
2022/08/06 02:11:29;;;;;;;3.00;1.33;;;;;;;;;;5076840;28;20443;-69
2022/08/06 02:13:58;;;;;;;2.73;1.10;;;;;;;;;;5077193;28;20461;-69
2022/08/06 02:16:27;;;;;;;2.60;1.00;;;;;;;;;;5077257;28;20728;-70
2022/08/06 02:18:56;;;;;;;2.20;1.00;;;;;;;;;;5077081;28;20800;-69
2022/08/06 02:21:26;;;;;;;2.80;0.87;;;;;;;;;;5077138;28;20456;-70
2022/08/06 02:23:54;;;;;;;3.33;1.10;;;;;;;;;;5077449;28;20456;-69
2022/08/06 02:26:24;;;;;;;1.93;1.00;;;;;;;;;;5076926;28;20445;-69
2022/08/06 02:28:53;;;;;;;4.73;1.07;;;;;;;;;;5077074;28;20687;-69
2022/08/06 02:31:20;;;;;;;2.23;0.90;;;;;;;;;;5076185;28;20733;-69
2022/08/06 02:33:47;;;;;;;4.13;1.83;;;;;;;;;;5076829;28;20559;-69
2022/08/06 02:36:17;;;;;;;2.27;1.20;;;;;;;;;;5077097;28;20840;-69
2022/08/06 02:38:47;;;;;;;2.30;1.10;;;;;;;;;;5077004;28;20468;-69
2022/08/06 02:41:18;;;;;;;3.00;0.93;;;;;;;;;;5077004;28;20452;-69
2022/08/06 02:43:49;;;;;;;2.23;1.00;;;;;;;;;;5076158;28;20460;-69
2022/08/06 02:46:18;;;;;;;3.07;1.03;;;;;;;;;;5076439;28;20448;-69
2022/08/06 02:48:49;;;;;;;2.13;0.90;;;;;;;;;;5076486;28;20752;-69
2022/08/06 02:51:21;;;;;;;1.50;0.90;;;;;;;;;;5076799;28;20468;-69
2022/08/06 02:53:56;;;;;;;4.97;1.20;;;;;;;;;;5076116;28;20460;-69
2022/08/06 02:56:24;;;;;;;2.20;0.93;;;;;;;;;;5078142;28;20479;-70
2022/08/06 02:58:53;;;;;;;3.10;1.40;;;;;;;;;;5076255;28;20443;-69
2022/08/06 03:01:24;;;;;;;1.70;1.10;;;;;;;;;;5076180;28;20475;-69
2022/08/06 03:03:53;;;;;;;6.03;1.13;;;;;;;;;;5076107;28;20908;-69
2022/08/06 03:06:21;;;;;;;8.30;1.60;;;;;;;;;;5075800;28;20472;-69
2022/08/06 03:08:51;;;;;;;2.43;1.20;;;;;;;;;;5076196;28;20944;-69
2022/08/06 03:11:18;;;;;;;3.30;1.17;;;;;;;;;;5075748;28;20465;-69
2022/08/06 03:13:46;;;;;;;4.43;1.23;;;;;;;;;;5075784;28;20537;-69
2022/08/06 03:16:14;;;;;;;2.23;1.20;;;;;;;;;;5076727;28;20780;-71
2022/08/06 03:18:43;;;;;;;2.33;1.03;;;;;;;;;;5074503;28;20729;-69
2022/08/06 03:21:10;;;;;;;4.80;1.60;;;;;;;;;;5076739;28;20521;-69
2022/08/06 03:23:39;;;;;;;4.20;1.50;;;;;;;;;;5075147;28;20436;-69
2022/08/06 03:26:07;;;;;;;2.80;1.23;;;;;;;;;;5074810;28;20449;-70
2022/08/06 03:28:35;;;;;;;2.70;1.10;;;;;;;;;;5075176;28;20898;-69
2022/08/06 03:31:02;;;;;;;2.37;1.30;;;;;;;;;;5075311;28;20457;-69
2022/08/06 03:33:30;;;;;;;2.10;1.03;;;;;;;;;;5087680;28;20474;-70
2022/08/06 03:35:59;;;;;;;1.60;0.83;;;;;;;;;;5086696;28;20495;-69
2022/08/06 03:38:27;;;;;;;1.70;1.00;;;;;;;;;;5077400;28;20571;-69
2022/08/06 03:40:56;;;;;;;2.97;1.60;;;;;;;;;;5076264;28;20448;-69
2022/08/06 03:43:23;;;;;;;2.77;1.27;;;;;;;;;;5074992;28;20555;-69
2022/08/06 03:45:52;;;;;;;2.70;1.07;;;;;;;;;;5075700;28;20448;-68
2022/08/06 03:48:25;;;;;;;1.73;1.10;;;;;;;;;;5076095;28;20453;-68
2022/08/06 03:50:52;;;;;;;2.77;1.20;;;;;;;;;;5076300;28;20465;-68
2022/08/06 03:53:21;;;;;;;2.60;2.40;;;;;;;;;;5075453;28;20488;-68
2022/08/06 03:55:50;;;;;;;2.13;1.23;;;;;;;;;;5074567;28;20484;-68
2022/08/06 03:58:18;;;;;;;3.40;1.23;;;;;;;;;;5075206;28;20529;-68
2022/08/06 04:00:51;;;;;;;4.90;1.30;;;;;;;;;;5075062;28;20510;-68
2022/08/06 04:03:20;;;;;;;4.33;1.23;;;;;;;;;;5075284;28;20559;-68
2022/08/06 04:05:48;;;;;;;1.73;0.93;;;;;;;;;;5075191;28;20457;-68
2022/08/06 04:08:15;;;;;;;2.13;0.90;;;;;;;;;;5075351;28;20491;-68
2022/08/06 04:10:49;;;;;;;8.90;1.40;;;;;;;;;;5076212;28;20455;-68
2022/08/06 04:13:17;;;;;;;4.40;1.20;;;;;;;;;;5075009;28;20499;-68
2022/08/06 04:15:46;;;;;;;2.70;1.20;;;;;;;;;;5075398;28;20514;-68
2022/08/06 04:18:16;;;;;;;2.13;1.00;;;;;;;;;;5074079;28;20503;-68
2022/08/06 04:20:45;;;;;;;1.80;1.00;;;;;;;;;;5083995;28;20467;-70
2022/08/06 04:23:12;;;;;;;6.23;1.70;;;;;;;;;;5077229;28;20783;-70
2022/08/06 04:25:42;;;;;;;3.07;1.20;;;;;;;;;;5082755;28;20864;-69
2022/08/06 04:28:10;;;;;;;2.77;1.37;;;;;;;;;;5075650;28;20480;-70
2022/08/06 04:30:38;;;;;;;3.17;1.23;;;;;;;;;;5075767;28;20972;-70
2022/08/06 04:33:07;;;;;;;2.40;1.07;;;;;;;;;;5081368;28;20833;-69
2022/08/06 04:35:35;;;;;;;6.63;1.47;;;;;;;;;;5076628;28;20544;-70
2022/08/06 04:38:02;;;;;;;2.07;1.00;;;;;;;;;;5074440;28;20513;-69
2022/08/06 04:40:30;;;;;;;1.77;1.10;;;;;;;;;;5074387;28;20537;-70
2022/08/06 04:42:57;;;;;;;3.07;1.20;;;;;;;;;;5074902;28;20468;-70
2022/08/06 04:45:27;;;;;;;2.40;1.30;;;;;;;;;;5074653;28;20464;-70
2022/08/06 04:47:54;;;;;;;2.77;1.30;;;;;;;;;;5074758;28;20453;-69
2022/08/06 04:50:22;;;;;;;4.03;1.30;;;;;;;;;;5073700;28;20463;-70
2022/08/06 04:52:49;;;;;;;3.90;1.00;;;;;;;;;;5074503;28;20533;-70
2022/08/06 04:55:22;;;;;;;5.07;1.40;;;;;;;;;;5073771;28;20787;-70
2022/08/06 04:57:49;;;;;;;3.93;1.30;;;;;;;;;;5079924;28;20519;-70
2022/08/06 05:00:18;;;;;;;3.93;1.77;;;;;;;;;;5073515;28;20463;-69
2022/08/06 05:02:45;;;;;;;4.00;1.53;;;;;;;;;;5075426;28;20456;-69
2022/08/06 05:05:14;;;;;;;2.93;1.37;;;;;;;;;;5073565;28;20463;-70
2022/08/06 05:07:43;;;;;;;2.17;1.27;;;;;;;;;;5074268;28;20861;-70
2022/08/06 05:10:10;;;;;;;1.87;1.10;;;;;;;;;;5085549;28;20727;-70
2022/08/06 05:12:41;;;;;;;3.67;1.17;;;;;;;;;;5079634;28;20541;-70
2022/08/06 05:15:10;;;;;;;1.70;0.97;;;;;;;;;;5087130;28;20562;-71
2022/08/06 05:17:40;;;;;;;1.97;0.80;;;;;;;;;;5092810;28;20463;-70
2022/08/06 05:20:12;;;;;;;4.20;1.10;;;;;;;;;;5093054;28;20452;-70
2022/08/06 05:22:40;;;;;;;2.13;0.80;;;;;;;;;;5093257;28;20653;-70
2022/08/06 05:25:09;;;;;;;8.00;0.90;;;;;;;;;;5093150;28;20448;-70
2022/08/06 05:27:36;;;;;;;3.20;0.93;;;;;;;;;;5093451;28;21043;-70
2022/08/06 05:30:04;;;;;;;1.87;0.93;;;;;;;;;;5094519;28;20447;-70
2022/08/06 05:32:31;;;;;;;6.50;0.93;;;;;;;;;;5094577;28;20459;-70
2022/08/06 05:34:58;;;;;;;2.00;0.90;;;;;;;;;;5094382;28;20494;-70
2022/08/06 05:37:25;;;;;;;1.90;0.90;;;;;;;;;;5092947;28;20723;-70
2022/08/06 05:39:52;;;;;;;1.60;0.70;;;;;;;;;;5094583;28;20458;-70
2022/08/06 05:42:20;;;;;;;4.03;1.00;;;;;;;;;;5094479;28;20451;-70
2022/08/06 05:44:47;;;;;;;2.63;0.87;;;;;;;;;;5093834;28;20748;-70
2022/08/06 05:47:16;;;;;;;2.13;0.70;;;;;;;;;;5092610;28;20452;-70
2022/08/06 05:49:45;;;;;;;1.40;0.60;;;;;;;;;;5092731;28;20875;-70
2022/08/06 05:52:14;;;;;;;3.60;0.90;;;;;;;;;;5093459;28;20527;-70
2022/08/06 05:54:43;;;;;;;3.60;1.00;;;;;;;;;;5093876;28;20455;-69
2022/08/06 05:57:14;;;;;;;2.13;1.30;;;;;;;;;;5090965;28;20491;-69
2022/08/06 05:59:48;;;;;;;3.50;1.83;;;;;;;;;;5092738;28;20447;-69
2022/08/06 06:02:15;;;;;;;2.80;0.50;;;;;;;;;;5088827;28;20960;-69
2022/08/06 06:04:43;;;;;;;2.00;0.70;;;;;;;;;;5077853;28;20456;-69
2022/08/06 06:07:11;;;;;;;4.00;1.20;;;;;;;;;;5087417;28;20618;-69
2022/08/06 06:09:39;;;;;;;3.40;0.70;;;;;;;;;;5074213;28;20445;-70
2022/08/06 06:12:07;;;;;;;3.87;0.90;;;;;;;;;;5075354;28;20895;-69
2022/08/06 06:14:36;;;;;;;6.10;0.70;;;;;;;;;;5077722;28;20448;-69
2022/08/06 06:17:16;;;;;;;2.43;0.70;;;;;;;;;;5077710;28;20460;-69
2022/08/06 06:19:47;;;;;;;3.70;0.90;;;;;;;;;;5077081;28;20572;-70
2022/08/06 06:22:19;;;;;;;2.20;0.80;;;;;;;;;;5077653;28;20456;-70
2022/08/06 06:24:49;;;;;;;3.87;0.90;;;;;;;;;;5077044;28;20459;-70
2022/08/06 06:27:19;;;;;;;2.33;1.33;;;;;;;;;;5088680;28;20467;-70
2022/08/06 06:29:49;;;;;;;1.50;0.60;;;;;;;;;;5097156;28;20524;-70
2022/08/06 06:32:19;;;;;;;1.80;0.80;;;;;;;;;;5097625;28;20903;-70
2022/08/06 06:34:51;;;;;;;3.60;0.60;;;;;;;;;;5088341;28;20920;-70
2022/08/06 06:37:24;;;;;;;5.20;0.70;;;;;;;;;;5097903;28;20512;-70
2022/08/06 06:39:59;;;;;;;2.27;0.60;;;;;;;;;;5095090;28;20464;-70
2022/08/06 06:42:29;;;;;;;2.63;0.70;;;;;;;;;;5096612;28;20503;-70
2022/08/06 06:45:01;;;;;;;2.37;0.87;;;;;;;;;;5090945;28;20484;-70
2022/08/06 06:47:33;;;;;;;2.73;0.90;;;;;;;;;;5076450;28;20440;-70
2022/08/06 06:50:07;;;;;;;5.10;0.80;;;;;;;;;;5085351;28;20466;-71
2022/08/06 06:52:38;;;;;;;3.70;1.70;;;;;;;;;;5107937;28;20451;-71
2022/08/06 06:55:09;;;;;;;3.10;0.60;;;;;;;;;;5101106;28;20478;-70
2022/08/06 06:57:38;;;;;;;2.80;0.80;;;;;;;;;;5116046;28;20766;-70
2022/08/06 07:00:06;;;;;;;2.03;0.80;;;;;;;;;;5081584;28;20476;-69
2022/08/06 07:02:36;;;;;;;3.10;0.90;;;;;;;;;;5086711;28;20451;-70
2022/08/06 07:05:04;;;;;;;1.70;0.60;;;;;;;;;;5096876;27;20467;-69
2022/08/06 07:07:33;;;;;;;2.40;0.97;;;;;;;;;;5093081;28;20448;-70
2022/08/06 07:10:00;;;;;;;3.20;0.93;;;;;;;;;;5093240;28;20856;-70
2022/08/06 07:12:30;;;;;;;2.43;1.03;;;;;;;;;;5095087;28;20448;-70
2022/08/06 07:15:01;;;;;;;3.00;0.70;;;;;;;;;;5094008;28;20463;-70
2022/08/06 07:17:30;;;;;;;2.33;0.90;;;;;;;;;;5091782;28;20461;-71
2022/08/06 07:19:59;;;;;;;4.80;0.90;;;;;;;;;;5090991;28;20854;-70
2022/08/06 07:22:27;;;;;;;2.80;0.80;;;;;;;;;;5095062;28;20460;-70
2022/08/06 07:24:57;;;;;;;1.63;0.60;;;;;;;;;;5094705;28;20455;-70
2022/08/06 07:27:26;;;;;;;2.23;1.17;;;;;;;;;;5094064;28;20484;-70
2022/08/06 07:29:53;;;;;;;2.33;0.70;;;;;;;;;;5094599;28;20693;-70
2022/08/06 07:32:22;;;;;;;2.13;0.97;;;;;;;;;;5086240;28;20856;-70
2022/08/06 07:34:49;;;;;;;2.43;0.50;;;;;;;;;;5086671;28;20467;-70
2022/08/06 07:37:20;;;;;;;2.93;0.80;;;;;;;;;;5090407;28;20464;-70
2022/08/06 07:39:48;;;;;;;5.40;1.10;;;;;;;;;;5092241;28;20474;-70
2022/08/06 07:42:19;;;;;;;2.40;1.00;;;;;;;;;;5080355;28;20464;-70
2022/08/06 07:44:50;;;;;;;5.23;0.80;;;;;;;;;;5084467;28;20466;-70
2022/08/06 07:47:24;;;;;;;2.23;0.83;;;;;;;;;;5078743;28;20468;-71
2022/08/06 07:49:56;;;;;;;1.80;0.60;;;;;;;;;;5079289;28;20844;-71
2022/08/06 07:52:25;;;;;;;1.70;0.60;;;;;;;;;;5082230;28;20877;-70
2022/08/06 07:54:53;;;;;;;7.83;0.63;;;;;;;;;;5077133;28;20533;-70
2022/08/06 07:57:21;;;;;;;1.97;0.83;;;;;;;;;;5081522;28;20452;-70
2022/08/06 07:59:50;;;;;;;3.90;0.70;;;;;;;;;;5083126;28;20487;-70
2022/08/06 08:02:18;;;;;;;2.00;0.77;;;;;;;;;;5094283;28;20564;-69
2022/08/06 08:07:32;;;;;;;5.23;1.00;;;;;;;;;;5090472;28;20470;-69
2022/08/06 08:10:13;;;;;;;1.70;0.70;;;;;;;;;;5085269;28;20460;-69
2022/08/06 08:12:40;;;;;;;1.50;0.60;;;;;;;;;;5090540;28;20885;-71
2022/08/06 08:15:08;;;;;;;1.90;0.63;;;;;;;;;;5085413;28;20977;-69
2022/08/06 08:17:38;;;;;;;2.87;0.90;;;;;;;;;;5089446;28;20472;-70
2022/08/06 08:20:06;;;;;;;2.13;0.70;;;;;;;;;;5092184;28;20487;-70
2022/08/06 08:22:34;;;;;;;1.80;0.60;;;;;;;;;;5084823;28;20488;-70
2022/08/06 08:25:01;;;;;;;3.37;0.90;;;;;;;;;;5114800;27;20447;-70
2022/08/06 08:27:29;;;;;;;2.17;0.60;;;;;;;;;;5086185;28;20471;-70
2022/08/06 08:29:56;;;;;;;3.10;0.70;;;;;;;;;;5073248;28;20907;-71
2022/08/06 08:32:23;;;;;;;2.23;0.70;;;;;;;;;;5086785;28;20468;-70
2022/08/06 08:34:50;;;;;;;4.37;0.70;;;;;;;;;;5089311;28;20467;-70
2022/08/06 08:37:18;;;;;;;2.23;0.70;;;;;;;;;;5089646;28;20459;-71
2022/08/06 08:39:46;;;;;;;2.23;0.70;;;;;;;;;;5072880;28;20453;-70
2022/08/06 08:42:17;;;;;;;4.70;1.00;;;;;;;;;;5091741;28;20751;-70
2022/08/06 08:44:46;;;;;;;1.40;0.50;;;;;;;;;;5094372;28;20479;-70
2022/08/06 08:47:14;;;;;;;1.87;0.70;;;;;;;;;;5089706;28;20487;-70
2022/08/06 08:49:43;;;;;;;2.83;0.70;;;;;;;;;;5078092;28;20476;-71
2022/08/06 08:52:14;;;;;;;2.63;0.80;;;;;;;;;;5090153;28;20435;-71
2022/08/06 08:54:42;;;;;;;4.60;0.70;;;;;;;;;;5086530;28;20546;-70
2022/08/06 08:57:12;;;;;;;4.80;1.00;;;;;;;;;;5080395;27;20495;-70
2022/08/06 08:59:42;;;;;;;1.83;0.53;;;;;;;;;;5082507;28;20464;-69
2022/08/06 09:02:12;;;;;;;2.60;0.80;;;;;;;;;;5081525;28;20475;-69
2022/08/06 09:04:44;;;;;;;2.10;0.53;;;;;;;;;;5084722;28;20479;-69
2022/08/06 09:07:15;;;;;;;4.20;0.67;;;;;;;;;;5083250;28;20551;-70
2022/08/06 09:09:52;;;;;;;1.80;0.60;;;;;;;;;;5082132;28;20460;-69
2022/08/06 09:12:25;;;;;;;5.33;1.07;;;;;;;;;;5080465;28;20452;-70
2022/08/06 09:14:57;;;;;;;2.47;0.70;;;;;;;;;;5076465;28;20468;-69
2022/08/06 09:17:25;;;;;;;2.77;0.70;;;;;;;;;;5085141;28;20463;-69
2022/08/06 09:19:53;;;;;;;1.97;0.63;;;;;;;;;;5082066;28;20459;-70
2022/08/06 09:22:21;;;;;;;1.63;0.70;;;;;;;;;;5078320;28;20464;-70
2022/08/06 09:24:48;;;;;;;1.67;0.60;;;;;;;;;;5089500;28;20490;-69
2022/08/06 09:27:17;;;;;;;1.60;0.70;;;;;;;;;;5078548;28;20563;-70
2022/08/06 09:29:50;;;;;;;1.50;0.50;;;;;;;;;;5081476;28;20460;-69
2022/08/06 09:32:32;;;;;;;2.17;0.73;;;;;;;;;;5074111;28;20479;-69
2022/08/06 09:34:59;;;;;;;2.90;0.70;;;;;;;;;;5074248;28;20527;-69
2022/08/06 09:40:17;;;;;;;5.50;0.80;;;;;;;;;;5065507;28;20461;-70
2022/08/06 09:42:48;;;;;;;1.87;0.50;;;;;;;;;;5083527;28;20480;-69
2022/08/06 09:45:17;;;;;;;1.87;0.70;;;;;;;;;;5087051;28;20534;-69
2022/08/06 09:47:53;;;;;;;2.40;0.50;;;;;;;;;;5087841;28;20491;-70
2022/08/06 09:50:38;;;;;;;1.70;0.60;;;;;;;;;;5082681;28;20456;-70
2022/08/06 09:53:09;;;;;;;2.33;0.70;;;;;;;;;;5079589;28;20463;-71
2022/08/06 09:55:40;;;;;;;1.90;0.50;;;;;;;;;;5080095;28;20492;-71
2022/08/06 09:58:12;;;;;;;1.60;0.60;;;;;;;;;;5074543;28;20456;-71
2022/08/06 10:00:41;;;;;;;1.90;0.70;;;;;;;;;;5080594;28;20468;-70
2022/08/06 10:03:13;;;;;;;1.90;0.70;;;;;;;;;;5083448;28;20472;-70
2022/08/06 10:05:43;;;;;;;1.30;0.40;;;;;;;;;;5085447;28;20475;-70
2022/08/06 10:08:11;;;;;;;3.83;0.60;;;;;;;;;;5093526;28;20493;-71
2022/08/06 10:10:43;;;;;;;2.43;0.97;;;;;;;;;;5093472;28;21016;-70
2022/08/06 10:13:20;;;;;;;2.63;0.60;;;;;;;;;;5089885;28;20470;-71
2022/08/06 10:15:49;;;;;;;2.00;0.77;;;;;;;;;;5083290;28;21030;-70
2022/08/06 10:18:36;;;;;;;1.87;0.60;;;;;;;;;;5078746;28;20484;-70
2022/08/06 10:21:05;;;;;;;4.43;0.63;;;;;;;;;;5083141;28;20463;-70
2022/08/06 10:23:42;;;;;;;4.70;0.70;;;;;;;;;;5085772;27;20498;-71
2022/08/06 10:26:10;;;;;;;5.83;0.80;;;;;;;;;;5076390;28;20861;-71
2022/08/06 10:28:41;;;;;;;1.87;0.63;;;;;;;;;;5079023;28;20475;-71
2022/08/06 10:31:10;;;;;;;1.50;0.70;;;;;;;;;;5086213;27;20830;-70
2022/08/06 10:33:41;;;;;;;3.53;2.80;;;;;;;;;;5089702;27;20504;-70
2022/08/06 10:36:10;;;;;;;5.37;0.80;;;;;;;;;;5078396;28;20487;-71
2022/08/06 10:38:39;;;;;;;1.90;0.60;;;;;;;;;;5083308;28;20533;-71
2022/08/06 10:41:08;;;;;;;1.70;0.60;;;;;;;;;;5083995;28;20816;-71
2022/08/06 10:43:36;;;;;;;1.40;0.60;;;;;;;;;;5094060;28;20529;-71
2022/08/06 10:46:05;;;;;;;2.10;1.20;;;;;;;;;;5087293;28;20474;-71
2022/08/06 10:48:34;;;;;;;2.67;1.80;;;;;;;;;;5080684;28;20488;-70
2022/08/06 10:51:01;;;;;;;4.07;0.60;;;;;;;;;;5082452;27;20484;-72
2022/08/06 10:53:33;;;;;;;1.63;0.50;;;;;;;;;;5093380;27;20479;-73
2022/08/06 10:56:06;;;;;;;2.00;0.50;;;;;;;;;;5076642;28;21135;-71
2022/08/06 10:58:42;;;;;;;2.23;0.60;;;;;;;;;;5090939;28;20485;-72
2022/08/06 11:01:12;;;;;;;2.57;0.60;;;;;;;;;;5093556;28;20478;-70
2022/08/06 11:03:57;;;;;;;1.70;0.70;;;;;;;;;;5092334;28;20447;-71
2022/08/06 11:06:34;;;;;;;1.77;0.60;;;;;;;;;;5084553;28;20531;-71
2022/08/06 11:09:12;;;;;;;1.70;0.50;;;;;;;;;;5093141;28;20872;-71
2022/08/06 11:11:53;;;;;;;1.40;0.50;;;;;;;;;;5091849;28;20496;-71
2022/08/06 11:14:21;;;;;;;2.50;0.60;;;;;;;;;;5092358;28;20965;-71
2022/08/06 11:16:55;;;;;;;2.60;0.60;;;;;;;;;;5092671;28;20522;-70
2022/08/06 11:19:39;;;;;;;4.03;0.80;;;;;;;;;;5089817;27;20450;-71
2022/08/06 11:22:08;;;;;;;2.17;0.50;;;;;;;;;;5089156;28;20539;-71
2022/08/06 11:24:51;;;;;;;2.00;0.60;;;;;;;;;;5094741;28;20495;-72
2022/08/06 11:27:35;;;;;;;4.30;0.93;;;;;;;;;;5098320;28;20499;-70
2022/08/06 11:30:09;;;;;;;1.77;0.60;;;;;;;;;;5095220;27;20462;-70
2022/08/06 11:32:53;;;;;;;2.53;0.67;;;;;;;;;;5091905;28;20547;-72
2022/08/06 11:35:49;;;;;;;1.63;0.50;;;;;;;;;;5089642;28;20569;-70
2022/08/06 11:38:43;;;;;;;1.60;0.60;;;;;;;;;;5088895;28;20473;-72
2022/08/06 11:41:12;;;;;;;2.33;0.70;;;;;;;;;;5093546;27;21041;-70
2022/08/06 11:43:57;;;;;;;1.50;0.50;;;;;;;;;;5089300;28;20510;-71
2022/08/06 11:46:25;;;;;;;1.37;0.50;;;;;;;;;;5065350;28;20823;-71
2022/08/06 11:49:14;;;;;;;1.60;0.70;;;;;;;;;;5081215;28;20461;-71
2022/08/06 11:51:42;;;;;;;3.80;0.70;;;;;;;;;;5078998;28;20505;-70
2022/08/06 11:54:12;;;;;;;2.10;0.90;;;;;;;;;;5084493;28;20456;-71
2022/08/06 11:57:07;;;;;;;3.93;1.10;;;;;;;;;;5073669;28;20492;-70
2022/08/06 11:59:37;;;;;;;1.43;0.60;;;;;;;;;;5050285;28;20575;-70
2022/08/06 12:02:16;;;;;;;2.03;0.60;;;;;;;;;;5083649;28;20510;-70
2022/08/06 12:05:07;;;;;;;1.40;0.50;;;;;;;;;;5080535;28;20888;-68
2022/08/06 12:07:38;;;;;;;2.60;0.70;;;;;;;;;;5080741;28;20505;-68
2022/08/06 12:10:12;;;;;;;3.10;0.60;;;;;;;;;;5089512;28;20554;-68
2022/08/06 12:12:42;;;;;;;3.70;1.00;;;;;;;;;;5086110;28;20479;-70
2022/08/06 12:15:24;;;;;;;4.27;0.70;;;;;;;;;;5075235;28;20932;-71
2022/08/06 12:17:58;;;;;;;4.43;0.80;;;;;;;;;;5072645;28;20891;-71
2022/08/06 12:20:37;;;;;;;2.43;0.60;;;;;;;;;;5073493;28;20663;-70
2022/08/06 12:23:10;;;;;;;3.10;0.67;;;;;;;;;;5073672;28;20472;-70
2022/08/06 12:25:42;;;;;;;2.40;0.70;;;;;;;;;;5085513;28;20558;-70
2022/08/06 12:28:10;;;;;;;1.60;0.50;;;;;;;;;;5082346;28;20467;-70
2022/08/06 12:30:41;;;;;;;1.60;0.60;;;;;;;;;;5084728;28;20465;-68
2022/08/06 12:33:09;;;;;;;1.80;0.60;;;;;;;;;;5080838;28;20503;-70
2022/08/06 12:35:36;;;;;;;3.77;1.97;;;;;;;;;;5091684;28;20548;-70
2022/08/06 12:38:12;;;;;;;2.73;0.70;;;;;;;;;;5093041;27;20471;-70
2022/08/06 12:40:57;;;;;;;3.07;0.70;;;;;;;;;;5091470;28;20497;-70
2022/08/06 12:43:25;;;;;;;2.67;0.80;;;;;;;;;;5073463;28;20467;-70
2022/08/06 12:45:57;;;;;;;2.00;0.60;;;;;;;;;;5084061;28;20466;-70
2022/08/06 12:48:25;;;;;;;3.60;0.80;;;;;;;;;;5089665;28;20459;-70
2022/08/06 12:51:13;;;;;;;3.70;0.70;;;;;;;;;;5080111;28;20472;-69
2022/08/06 12:53:41;;;;;;;3.00;1.00;;;;;;;;;;5081297;28;20860;-70
2022/08/06 12:56:09;;;;;;;1.93;0.77;;;;;;;;;;5075760;28;20481;-70
2022/08/06 12:58:38;;;;;;;3.50;0.87;;;;;;;;;;5085146;28;20479;-70
2022/08/06 13:01:07;;;;;;;2.07;0.80;;;;;;;;;;5085773;28;20886;-71
2022/08/06 13:03:38;;;;;;;1.70;0.70;;;;;;;;;;5098477;28;21077;-70
2022/08/06 13:06:11;;;;;;;3.23;0.80;;;;;;;;;;5075579;28;20498;-71
2022/08/06 13:08:40;;;;;;;4.10;0.77;;;;;;;;;;5091225;27;20435;-70
2022/08/06 13:11:07;;;;;;;2.37;1.13;;;;;;;;;;5080251;28;20464;-70
2022/08/06 13:13:39;;;;;;;2.13;0.90;;;;;;;;;;5074588;28;20892;-70
2022/08/06 13:16:08;;;;;;;3.50;1.33;;;;;;;;;;5101886;27;20570;-70
2022/08/06 13:18:37;;;;;;;6.30;1.50;;;;;;;;;;5097525;28;20522;-70
2022/08/06 13:21:19;;;;;;;2.37;0.80;;;;;;;;;;5088483;28;20852;-70
2022/08/06 13:23:48;;;;;;;2.10;0.90;;;;;;;;;;5087894;28;20468;-70
2022/08/06 13:26:17;;;;;;;4.57;0.80;;;;;;;;;;5096803;27;20468;-69
2022/08/06 13:28:58;;;;;;;3.50;0.90;;;;;;;;;;5086941;28;20469;-71
2022/08/06 13:31:26;;;;;;;3.20;1.80;;;;;;;;;;5100296;27;20578;-71
2022/08/06 13:34:04;;;;;;;5.67;1.07;;;;;;;;;;5091958;28;20469;-71
2022/08/06 13:36:36;;;;;;;4.87;1.27;;;;;;;;;;5082259;28;20483;-71
2022/08/06 13:39:18;;;;;;;3.20;1.10;;;;;;;;;;5089766;28;20709;-70
2022/08/06 13:41:46;;;;;;;2.00;1.00;;;;;;;;;;5097885;28;20832;-71
2022/08/06 13:44:30;;;;;;;5.90;1.23;;;;;;;;;;5074968;28;20460;-70
2022/08/06 13:46:58;;;;;;;4.30;1.70;;;;;;;;;;5076527;27;20515;-69
2022/08/06 13:49:25;;;;;;;2.40;1.40;;;;;;;;;;5083135;28;20508;-69
2022/08/06 13:51:53;;;;;;;3.63;1.80;;;;;;;;;;5079316;28;20745;-69
2022/08/06 13:54:21;;;;;;;4.63;2.00;;;;;;;;;;5094209;28;20938;-69
2022/08/06 13:56:48;;;;;;;2.70;1.20;;;;;;;;;;5094322;28;20490;-69
2022/08/06 13:59:16;;;;;;;2.77;1.20;;;;;;;;;;5087824;28;20444;-69
2022/08/06 14:01:44;;;;;;;3.77;2.10;;;;;;;;;;5111479;27;20841;-70
2022/08/06 14:04:12;;;;;;;2.93;1.50;;;;;;;;;;5107061;27;20464;-72
2022/08/06 14:06:39;;;;;;;6.23;1.57;;;;;;;;;;5083394;28;20509;-69
2022/08/06 14:09:07;;;;;;;3.77;2.00;;;;;;;;;;5089940;28;20637;-71
2022/08/06 14:11:34;;;;;;;3.40;2.00;;;;;;;;;;5092662;28;20460;-71
2022/08/06 14:14:01;;;;;;;3.40;1.90;;;;;;;;;;5095296;28;20725;-71
2022/08/06 14:16:29;;;;;;;4.30;1.90;;;;;;;;;;5078569;28;20545;-71
2022/08/06 14:18:58;;;;;;;3.17;1.80;;;;;;;;;;5083565;28;20472;-71
2022/08/06 14:21:26;;;;;;;4.10;1.90;;;;;;;;;;5074819;28;20464;-71
2022/08/06 14:23:54;;;;;;;3.50;1.60;;;;;;;;;;5078913;28;20468;-70
2022/08/06 14:26:24;;;;;;;2.80;1.50;;;;;;;;;;5086340;28;20721;-71
2022/08/06 14:28:51;;;;;;;3.57;1.80;;;;;;;;;;5075362;28;20468;-71
2022/08/06 14:31:18;;;;;;;2.87;1.60;;;;;;;;;;5075686;28;20449;-71
2022/08/06 14:33:47;;;;;;;2.93;2.00;;;;;;;;;;5083879;28;20843;-70
2022/08/06 14:36:15;;;;;;;4.30;1.97;;;;;;;;;;5088674;28;20598;-70
2022/08/06 14:38:45;;;;;;;5.27;2.03;;;;;;;;;;5085741;28;20756;-70
2022/08/06 14:46:43;;;;;;;4.30;2.27;;;;;;;;;;5085074;28;20456;-71
2022/08/06 14:49:10;;;;;;;3.70;2.03;;;;;;;;;;5075979;28;20472;-72
2022/08/06 14:51:38;;;;;;;3.37;1.83;;;;;;;;;;5091059;28;20452;-70
2022/08/06 14:54:06;;;;;;;5.83;2.30;;;;;;;;;;5095552;28;20872;-70
2022/08/06 14:56:36;;;;;;;3.63;2.30;;;;;;;;;;5095629;28;20575;-70
2022/08/06 14:59:03;;;;;;;3.80;2.43;;;;;;;;;;5094801;28;20725;-70
2022/08/06 15:01:32;;;;;;;5.30;2.73;;;;;;;;;;5095034;28;20546;-70
2022/08/06 15:03:59;;;;;;;3.60;2.23;;;;;;;;;;5094859;28;20466;-70
2022/08/06 15:06:26;;;;;;;5.00;2.93;;;;;;;;;;5093851;28;20478;-71
2022/08/06 15:08:58;;;;;;;4.80;2.43;;;;;;;;;;5103770;28;20458;-71
2022/08/06 15:11:29;;;;;;;4.70;2.93;;;;;;;;;;5114112;27;20823;-69
2022/08/06 15:13:57;;;;;;;5.00;2.33;;;;;;;;;;5114314;27;20523;-71